NIN weather

Ninilchik Airport
Ninilchik, Alaska, United States

Public forecast

Using degrees Fahrenheit for public forecast. Weather courtesy of forecast.io.

METAR (pilot weather report)

Closest report is Homer Airport, 22.7 nm (42.1 km) S. Retrieved 2019/07/24 06:53 UTC (50 minutes ago):

PAHO 240653Z AUTO 00000KT 10SM BKN055 OVC095 16/13 A2991 RMK AO2 SLP128 T01560128 TSNO $

TAF (pilot weather forecast)

Closest forecast is Homer Airport, 22.7 nm (42.1 km) S. Retrieved 2019/07/24 06:39 UTC (1 hour ago):

TAF PAHO 240537Z 2406/2506 23007KT P6SM VCSH BKN050